Pagina principală
METAR-TAF:

METAR-TAF

Aeroporturi :

Medicine Lodge Airport

Medicine Lodge, Kansas, Statele Unite ale Americii

Latitudine: 37-17-02N, longitudine: 098-33-10W, elevație: 469 m

Observații meteo curente

Raportul a fost făcut în urmă cu 18 de minute, la 07:56 UTC
Vânt calm
Temperatură 4°C
Umiditate 70%
Presiune 1014 hPa

METAR: KP28 210756Z AUTO 00000KT 04/M01 A2994 RMK AO1 SLP136 T00391011 $

Ora: 02:14 (08:14 UTC)


TAF: lipsă

Observații și prognoze meteo pentru peste 4.000 de aeroporturi (rapoarte METAR și TAF).

Stațiile disponibile sunt reprezentate pe hartă prin puncte galbene și roșii.

Țineți indicatorul mouse-ului pe punctul dorit pentru a vedea denumirea stației.

Apoi, faceți clic pentru a vedea observațiile și prognozele meteorologice.

Pentru a schimba harta: Pentru mărire, faceți clic pe butoanele verzi cu cruce neagră; pentru micșorare, pe butonul verde cu o liniuță; pentru hărți învecinate, pe săgețile verzi.


METAR-TAF: